Friday, July 20, 2018, 4:56 AM EDT
Back to Local

KJHW, Jamestown, Chautauqua County/jamestown Airport

Location: Jamestown, NY, United States Lat: 42.15
Local Time: 4:56 AM EDT ( 8:56 GMT) Lon: -79.267
Time Zone: US/Eastern Elev: 1722 ft

Show me the last for .
Show Decoded

2018-07-20 03:56 METAR KJHW 200756Z AUTO 17006KT 10SM CLR 16/13 A3009 RMK AO2 SLP184 T01610133 =
2018-07-20 02:56 METAR KJHW 200656Z AUTO 17005KT 10SM CLR 16/13 A3009 RMK AO2 SLP184 T01610133 =
2018-07-20 00:56 METAR KJHW 200456Z AUTO 16005KT 10SM CLR 16/13 A3010 RMK AO2 SLP189 T01560133
                 402500111 =
2018-07-19 23:56 METAR KJHW 200356Z AUTO 13004KT 10SM CLR 18/13 A3010 RMK AO2 SLP189 T01830133 =
2018-07-19 21:56 METAR KJHW 200156Z AUTO 05005KT 10SM CLR 19/12 A3010 RMK AO2 SLP189 T01940122 =
2018-07-19 20:56 METAR KJHW 200056Z AUTO 34004KT 10SM CLR 21/12 A3009 RMK AO2 SLP186 T02060117 =
2018-07-19 19:56 METAR KJHW 192356Z AUTO 34004KT 10SM CLR 23/13 A3008 RMK AO2 SLP185 T02280128
                 10250 20228 58005 =
2018-07-19 18:56 METAR KJHW 192256Z AUTO 20005KT 10SM CLR 24/11 A3010 RMK AO2 SLP190 T02440106 =
2018-07-19 17:56 METAR KJHW 192156Z AUTO 20007KT 160V220 10SM CLR 25/12 A3010 RMK AO2 SLP190
                 T02500117 =
2018-07-19 16:56 METAR KJHW 192056Z AUTO VRB03KT 10SM CLR 25/12 A3010 RMK AO2 SLP191 T02500122
                 56013 =
2018-07-19 15:56 METAR KJHW 191956Z AUTO VRB03KT 10SM CLR 24/12 A3011 RMK AO2 SLP195 T02390117 =
2018-07-19 14:56 METAR KJHW 191856Z AUTO VRB03KT 10SM CLR 24/11 A3013 RMK AO2 SLP200 T02390111 =
2018-07-19 13:56 METAR KJHW 191756Z AUTO 20004KT 10SM CLR 23/10 A3014 RMK AO2 SLP205 T02280100
                 10233 20144 58008 =
2018-07-19 12:56 METAR KJHW 191656Z AUTO 26009KT 10SM CLR 23/11 A3015 RMK AO2 SLP208 T02280111 =
2018-07-19 11:56 METAR KJHW 191556Z AUTO 25009KT 10SM CLR 22/11 A3016 RMK AO2 SLP212 T02170111 =
2018-07-19 10:56 METAR KJHW 191456Z AUTO 21007KT 10SM CLR 21/12 A3016 RMK AO2 SLP213 T02060117
                 53006 =
2018-07-19 09:56 METAR KJHW 191356Z AUTO 23007KT 10SM CLR 19/13 A3016 RMK AO2 SLP210 T01940128 =
2018-07-19 08:56 METAR KJHW 191256Z AUTO 17004KT 10SM CLR 17/13 A3015 RMK AO2 SLP211 T01720128 =
2018-07-19 07:56 METAR KJHW 191156Z AUTO 18003KT 10SM SCT002 14/12 A3015 RMK AO2 SLP208 T01440122
                 10144 20111 51001 =
2018-07-19 07:54 METAR KJHW 191154Z AUTO 00000KT 10SM SCT002 14/12 A3014 RMK AO2 =
2018-07-19 07:43 METAR KJHW 191143Z AUTO 17003KT 4SM BR BKN002 14/12 A3014 RMK AO2 =
2018-07-19 06:56 METAR KJHW 191056Z AUTO 18003KT 10SM CLR 12/11 A3015 RMK AO2 SLP209 T01170111 =
2018-07-19 06:14 METAR KJHW 191014Z AUTO 17003KT 4SM BR CLR 11/11 A3015 RMK AO2 =
2018-07-19 06:03 METAR KJHW 191003Z AUTO 00000KT 1 3/4SM BR CLR 11/11 A3014 RMK AO2 =
2018-07-19 05:56 METAR KJHW 190956Z AUTO 17003KT 10SM CLR 12/11 A3014 RMK AO2 SLP208 T01170111 =

Support USWX by starting your Amazon purchase here.